sensor_id;sensor_type;location;lat;lon;timestamp;P1;durP1;ratioP1;P2;durP2;ratioP2
39032;SDS011;24794;51.982;5.878;2022-07-23T00:00:18;1.35;;;1.08;;
39032;SDS011;24794;51.982;5.878;2022-07-23T00:01:19;1.88;;;0.90;;
39032;SDS011;24794;51.982;5.878;2022-07-23T00:02:20;1.88;;;0.98;;
39032;SDS011;24794;51.982;5.878;2022-07-23T00:03:21;1.52;;;0.90;;
39032;SDS011;24794;51.982;5.878;2022-07-23T00:04:21;2.22;;;0.98;;
39032;SDS011;24794;51.982;5.878;2022-07-23T00:05:22;1.58;;;1.00;;
39032;SDS011;24794;51.982;5.878;2022-07-23T00:06:23;1.63;;;0.90;;
39032;SDS011;24794;51.982;5.878;2022-07-23T00:07:24;1.80;;;1.00;;
39032;SDS011;24794;51.982;5.878;2022-07-23T00:08:24;2.13;;;1.10;;
39032;SDS011;24794;51.982;5.878;2022-07-23T00:09:25;3.72;;;1.20;;
39032;SDS011;24794;51.982;5.878;2022-07-23T00:10:26;4.80;;;1.40;;
39032;SDS011;24794;51.982;5.878;2022-07-23T00:11:27;3.20;;;1.00;;
39032;SDS011;24794;51.982;5.878;2022-07-23T00:12:27;4.72;;;1.52;;
39032;SDS011;24794;51.982;5.878;2022-07-23T00:13:28;1.27;;;0.93;;
39032;SDS011;24794;51.982;5.878;2022-07-23T00:14:28;2.03;;;1.08;;
39032;SDS011;24794;51.982;5.878;2022-07-23T00:15:29;1.85;;;1.13;;
39032;SDS011;24794;51.982;5.878;2022-07-23T00:16:30;2.67;;;1.33;;
39032;SDS011;24794;51.982;5.878;2022-07-23T00:17:30;2.88;;;1.30;;
39032;SDS011;24794;51.982;5.878;2022-07-23T00:18:31;2.90;;;1.35;;
39032;SDS011;24794;51.982;5.878;2022-07-23T00:19:32;1.85;;;1.10;;
39032;SDS011;24794;51.982;5.878;2022-07-23T00:20:33;2.03;;;1.10;;
39032;SDS011;24794;51.982;5.878;2022-07-23T00:21:33;3.38;;;1.20;;
39032;SDS011;24794;51.982;5.878;2022-07-23T00:22:34;1.98;;;1.00;;
39032;SDS011;24794;51.982;5.878;2022-07-23T00:23:35;3.10;;;1.40;;
39032;SDS011;24794;51.982;5.878;2022-07-23T00:24:35;1.52;;;1.10;;
39032;SDS011;24794;51.982;5.878;2022-07-23T00:25:36;1.70;;;1.10;;
39032;SDS011;24794;51.982;5.878;2022-07-23T00:26:36;1.85;;;1.20;;
39032;SDS011;24794;51.982;5.878;2022-07-23T00:27:37;2.80;;;1.40;;
39032;SDS011;24794;51.982;5.878;2022-07-23T00:28:37;3.95;;;1.05;;
39032;SDS011;24794;51.982;5.878;2022-07-23T00:29:38;3.92;;;1.27;;
39032;SDS011;24794;51.982;5.878;2022-07-23T00:30:38;1.60;;;1.20;;
39032;SDS011;24794;51.982;5.878;2022-07-23T00:31:39;3.17;;;1.58;;
39032;SDS011;24794;51.982;5.878;2022-07-23T00:33:51;3.20;;;1.73;;
39032;SDS011;24794;51.982;5.878;2022-07-23T00:34:56;2.55;;;1.27;;
39032;SDS011;24794;51.982;5.878;2022-07-23T00:35:57;4.45;;;1.38;;
39032;SDS011;24794;51.982;5.878;2022-07-23T00:36:57;2.33;;;1.30;;
39032;SDS011;24794;51.982;5.878;2022-07-23T00:37:58;4.38;;;1.60;;
39032;SDS011;24794;51.982;5.878;2022-07-23T00:38:59;1.77;;;1.30;;
39032;SDS011;24794;51.982;5.878;2022-07-23T00:40:00;4.90;;;1.65;;
39032;SDS011;24794;51.982;5.878;2022-07-23T00:41:01;3.08;;;1.48;;
39032;SDS011;24794;51.982;5.878;2022-07-23T00:42:01;3.55;;;1.42;;
39032;SDS011;24794;51.982;5.878;2022-07-23T00:43:03;4.78;;;1.85;;
39032;SDS011;24794;51.982;5.878;2022-07-23T00:44:23;5.43;;;1.58;;
39032;SDS011;24794;51.982;5.878;2022-07-23T00:45:25;3.92;;;1.50;;
39032;SDS011;24794;51.982;5.878;2022-07-23T00:46:26;3.42;;;1.48;;
39032;SDS011;24794;51.982;5.878;2022-07-23T00:47:27;3.80;;;1.48;;
39032;SDS011;24794;51.982;5.878;2022-07-23T00:48:27;2.95;;;1.20;;
39032;SDS011;24794;51.982;5.878;2022-07-23T00:49:28;2.85;;;1.30;;
39032;SDS011;24794;51.982;5.878;2022-07-23T00:50:30;2.45;;;1.50;;
39032;SDS011;24794;51.982;5.878;2022-07-23T00:51:30;2.35;;;1.30;;
39032;SDS011;24794;51.982;5.878;2022-07-23T00:52:31;2.95;;;1.40;;
39032;SDS011;24794;51.982;5.878;2022-07-23T00:53:32;3.78;;;1.40;;
39032;SDS011;24794;51.982;5.878;2022-07-23T00:54:34;2.50;;;1.50;;
39032;SDS011;24794;51.982;5.878;2022-07-23T00:55:35;3.83;;;1.30;;
39032;SDS011;24794;51.982;5.878;2022-07-23T00:56:36;3.40;;;1.30;;
39032;SDS011;24794;51.982;5.878;2022-07-23T00:57:37;1.42;;;1.30;;
39032;SDS011;24794;51.982;5.878;2022-07-23T00:58:39;3.90;;;1.48;;
39032;SDS011;24794;51.982;5.878;2022-07-23T00:59:42;2.85;;;1.33;;
39032;SDS011;24794;51.982;5.878;2022-07-23T01:00:43;2.42;;;1.65;;
39032;SDS011;24794;51.982;5.878;2022-07-23T01:01:43;3.78;;;1.52;;
39032;SDS011;24794;51.982;5.878;2022-07-23T01:02:45;3.92;;;1.40;;
39032;SDS011;24794;51.982;5.878;2022-07-23T01:03:46;1.55;;;1.20;;
39032;SDS011;24794;51.982;5.878;2022-07-23T01:04:46;1.75;;;1.30;;
39032;SDS011;24794;51.982;5.878;2022-07-23T01:05:47;2.17;;;1.33;;
39032;SDS011;24794;51.982;5.878;2022-07-23T01:06:48;2.85;;;1.63;;
39032;SDS011;24794;51.982;5.878;2022-07-23T01:07:49;2.60;;;1.50;;
39032;SDS011;24794;51.982;5.878;2022-07-23T01:08:52;6.20;;;1.45;;
39032;SDS011;24794;51.982;5.878;2022-07-23T01:09:54;2.45;;;1.40;;
39032;SDS011;24794;51.982;5.878;2022-07-23T01:10:55;2.45;;;1.20;;
39032;SDS011;24794;51.982;5.878;2022-07-23T01:11:56;3.60;;;1.27;;
39032;SDS011;24794;51.982;5.878;2022-07-23T01:12:59;3.90;;;1.50;;
39032;SDS011;24794;51.982;5.878;2022-07-23T01:14:13;1.50;;;1.40;;
39032;SDS011;24794;51.982;5.878;2022-07-23T01:15:15;2.00;;;1.40;;
39032;SDS011;24794;51.982;5.878;2022-07-23T01:16:16;2.28;;;1.60;;
39032;SDS011;24794;51.982;5.878;2022-07-23T01:17:17;3.28;;;1.63;;
39032;SDS011;24794;51.982;5.878;2022-07-23T01:18:17;2.47;;;1.55;;
39032;SDS011;24794;51.982;5.878;2022-07-23T01:19:18;3.80;;;1.60;;
39032;SDS011;24794;51.982;5.878;2022-07-23T01:20:19;2.22;;;1.70;;
39032;SDS011;24794;51.982;5.878;2022-07-23T01:21:20;2.50;;;1.50;;
39032;SDS011;24794;51.982;5.878;2022-07-23T01:22:21;3.17;;;1.63;;
39032;SDS011;24794;51.982;5.878;2022-07-23T01:23:23;3.90;;;1.63;;
39032;SDS011;24794;51.982;5.878;2022-07-23T01:24:23;4.40;;;1.55;;
39032;SDS011;24794;51.982;5.878;2022-07-23T01:25:24;2.30;;;1.40;;
39032;SDS011;24794;51.982;5.878;2022-07-23T01:26:25;4.13;;;1.50;;
39032;SDS011;24794;51.982;5.878;2022-07-23T01:27:26;3.97;;;1.70;;
39032;SDS011;24794;51.982;5.878;2022-07-23T01:28:26;3.42;;;1.80;;
39032;SDS011;24794;51.982;5.878;2022-07-23T01:29:27;4.13;;;1.45;;
39032;SDS011;24794;51.982;5.878;2022-07-23T01:30:27;2.65;;;1.60;;
39032;SDS011;24794;51.982;5.878;2022-07-23T01:31:28;2.60;;;1.60;;
39032;SDS011;24794;51.982;5.878;2022-07-23T01:32:29;3.17;;;1.63;;
39032;SDS011;24794;51.982;5.878;2022-07-23T01:33:29;1.92;;;1.60;;
39032;SDS011;24794;51.982;5.878;2022-07-23T01:34:30;3.35;;;1.50;;
39032;SDS011;24794;51.982;5.878;2022-07-23T01:35:31;3.40;;;1.70;;
39032;SDS011;24794;51.982;5.878;2022-07-23T01:36:31;3.60;;;1.50;;
39032;SDS011;24794;51.982;5.878;2022-07-23T01:37:32;5.32;;;1.67;;
39032;SDS011;24794;51.982;5.878;2022-07-23T01:38:32;1.55;;;1.35;;
39032;SDS011;24794;51.982;5.878;2022-07-23T01:39:33;1.77;;;1.40;;
39032;SDS011;24794;51.982;5.878;2022-07-23T01:40:33;2.83;;;1.50;;
39032;SDS011;24794;51.982;5.878;2022-07-23T01:41:34;2.40;;;1.45;;
39032;SDS011;24794;51.982;5.878;2022-07-23T01:42:35;2.47;;;1.40;;
39032;SDS011;24794;51.982;5.878;2022-07-23T01:43:36;2.92;;;1.55;;
39032;SDS011;24794;51.982;5.878;2022-07-23T01:44:36;2.15;;;1.48;;
39032;SDS011;24794;51.982;5.878;2022-07-23T01:45:37;2.15;;;1.60;;
39032;SDS011;24794;51.982;5.878;2022-07-23T01:46:38;2.33;;;1.42;;
39032;SDS011;24794;51.982;5.878;2022-07-23T01:47:39;2.85;;;1.42;;
39032;SDS011;24794;51.982;5.878;2022-07-23T01:48:39;2.13;;;1.50;;
39032;SDS011;24794;51.982;5.878;2022-07-23T01:49:40;3.33;;;1.60;;
39032;SDS011;24794;51.982;5.878;2022-07-23T01:50:41;3.17;;;1.50;;
39032;SDS011;24794;51.982;5.878;2022-07-23T01:51:41;1.63;;;1.30;;
39032;SDS011;24794;51.982;5.878;2022-07-23T01:52:59;3.35;;;1.50;;
39032;SDS011;24794;51.982;5.878;2022-07-23T01:53:59;3.47;;;1.70;;
39032;SDS011;24794;51.982;5.878;2022-07-23T01:55:00;4.18;;;1.48;;
39032;SDS011;24794;51.982;5.878;2022-07-23T01:56:01;3.33;;;1.38;;
39032;SDS011;24794;51.982;5.878;2022-07-23T01:57:03;3.95;;;1.60;;
39032;SDS011;24794;51.982;5.878;2022-07-23T01:58:03;2.15;;;1.63;;
39032;SDS011;24794;51.982;5.878;2022-07-23T01:59:05;3.33;;;1.40;;
39032;SDS011;24794;51.982;5.878;2022-07-23T02:00:06;6.30;;;1.58;;
39032;SDS011;24794;51.982;5.878;2022-07-23T02:01:07;1.67;;;1.38;;
39032;SDS011;24794;51.982;5.878;2022-07-23T02:02:07;5.05;;;1.42;;
39032;SDS011;24794;51.982;5.878;2022-07-23T02:03:08;2.10;;;1.50;;
39032;SDS011;24794;51.982;5.878;2022-07-23T02:04:08;2.70;;;1.40;;
39032;SDS011;24794;51.982;5.878;2022-07-23T02:05:09;3.25;;;1.40;;
39032;SDS011;24794;51.982;5.878;2022-07-23T02:06:10;4.50;;;1.40;;
39032;SDS011;24794;51.982;5.878;2022-07-23T02:07:10;2.65;;;1.40;;
39032;SDS011;24794;51.982;5.878;2022-07-23T02:08:11;3.45;;;1.50;;
39032;SDS011;24794;51.982;5.878;2022-07-23T02:09:11;1.85;;;1.45;;
39032;SDS011;24794;51.982;5.878;2022-07-23T02:10:12;2.35;;;1.30;;
39032;SDS011;24794;51.982;5.878;2022-07-23T02:11:13;1.95;;;1.40;;
39032;SDS011;24794;51.982;5.878;2022-07-23T02:12:13;3.28;;;1.45;;
39032;SDS011;24794;51.982;5.878;2022-07-23T02:13:14;2.00;;;1.27;;
39032;SDS011;24794;51.982;5.878;2022-07-23T02:14:15;2.10;;;1.30;;
39032;SDS011;24794;51.982;5.878;2022-07-23T02:15:15;2.00;;;1.20;;
39032;SDS011;24794;51.982;5.878;2022-07-23T02:16:16;4.35;;;1.38;;
39032;SDS011;24794;51.982;5.878;2022-07-23T02:17:16;2.47;;;1.60;;
39032;SDS011;24794;51.982;5.878;2022-07-23T02:18:17;1.25;;;1.02;;
39032;SDS011;24794;51.982;5.878;2022-07-23T02:19:18;4.22;;;1.40;;
39032;SDS011;24794;51.982;5.878;2022-07-23T02:20:18;1.45;;;1.30;;
39032;SDS011;24794;51.982;5.878;2022-07-23T02:21:19;1.92;;;1.38;;
39032;SDS011;24794;51.982;5.878;2022-07-23T02:22:19;2.45;;;1.45;;
39032;SDS011;24794;51.982;5.878;2022-07-23T02:23:20;2.75;;;1.48;;
39032;SDS011;24794;51.982;5.878;2022-07-23T02:24:21;2.25;;;1.48;;
39032;SDS011;24794;51.982;5.878;2022-07-23T02:25:22;3.15;;;1.58;;
39032;SDS011;24794;51.982;5.878;2022-07-23T02:26:22;1.70;;;1.40;;
39032;SDS011;24794;51.982;5.878;2022-07-23T02:27:23;2.83;;;1.42;;
39032;SDS011;24794;51.982;5.878;2022-07-23T02:28:23;2.25;;;1.30;;
39032;SDS011;24794;51.982;5.878;2022-07-23T02:29:24;4.40;;;1.42;;
39032;SDS011;24794;51.982;5.878;2022-07-23T02:30:24;1.83;;;1.30;;
39032;SDS011;24794;51.982;5.878;2022-07-23T02:31:26;3.28;;;1.33;;
39032;SDS011;24794;51.982;5.878;2022-07-23T02:32:26;3.75;;;1.55;;
39032;SDS011;24794;51.982;5.878;2022-07-23T02:33:27;3.47;;;1.80;;
39032;SDS011;24794;51.982;5.878;2022-07-23T02:34:27;4.00;;;1.67;;
39032;SDS011;24794;51.982;5.878;2022-07-23T02:35:28;3.28;;;1.77;;
39032;SDS011;24794;51.982;5.878;2022-07-23T02:36:29;3.20;;;1.50;;
39032;SDS011;24794;51.982;5.878;2022-07-23T02:37:29;2.33;;;1.67;;
39032;SDS011;24794;51.982;5.878;2022-07-23T02:38:30;2.33;;;1.50;;
39032;SDS011;24794;51.982;5.878;2022-07-23T02:39:31;3.97;;;1.63;;
39032;SDS011;24794;51.982;5.878;2022-07-23T02:40:31;3.55;;;1.55;;
39032;SDS011;24794;51.982;5.878;2022-07-23T02:41:32;2.38;;;1.52;;
39032;SDS011;24794;51.982;5.878;2022-07-23T02:42:32;2.63;;;1.30;;
39032;SDS011;24794;51.982;5.878;2022-07-23T02:43:33;3.22;;;1.50;;
39032;SDS011;24794;51.982;5.878;2022-07-23T02:44:33;2.95;;;1.65;;
39032;SDS011;24794;51.982;5.878;2022-07-23T02:45:34;3.60;;;1.30;;
39032;SDS011;24794;51.982;5.878;2022-07-23T02:46:34;2.50;;;1.30;;
39032;SDS011;24794;51.982;5.878;2022-07-23T02:47:35;3.05;;;1.40;;
39032;SDS011;24794;51.982;5.878;2022-07-23T02:48:36;1.92;;;1.30;;
39032;SDS011;24794;51.982;5.878;2022-07-23T02:49:36;3.38;;;1.40;;
39032;SDS011;24794;51.982;5.878;2022-07-23T02:50:37;4.78;;;1.67;;
39032;SDS011;24794;51.982;5.878;2022-07-23T02:51:37;4.97;;;1.60;;
39032;SDS011;24794;51.982;5.878;2022-07-23T02:52:38;4.10;;;1.40;;
39032;SDS011;24794;51.982;5.878;2022-07-23T02:53:39;2.65;;;1.42;;
39032;SDS011;24794;51.982;5.878;2022-07-23T02:54:40;1.30;;;1.00;;
39032;SDS011;24794;51.982;5.878;2022-07-23T02:55:40;3.25;;;1.33;;
39032;SDS011;24794;51.982;5.878;2022-07-23T02:56:41;2.65;;;1.40;;
39032;SDS011;24794;51.982;5.878;2022-07-23T02:57:41;3.33;;;1.20;;
39032;SDS011;24794;51.982;5.878;2022-07-23T02:58:42;2.13;;;1.25;;
39032;SDS011;24794;51.982;5.878;2022-07-23T02:59:42;2.67;;;1.30;;
39032;SDS011;24794;51.982;5.878;2022-07-23T03:00:43;3.50;;;1.40;;
39032;SDS011;24794;51.982;5.878;2022-07-23T03:01:44;3.90;;;1.27;;
39032;SDS011;24794;51.982;5.878;2022-07-23T03:02:45;2.53;;;1.17;;
39032;SDS011;24794;51.982;5.878;2022-07-23T03:03:46;3.60;;;1.40;;
39032;SDS011;24794;51.982;5.878;2022-07-23T03:04:46;2.97;;;1.20;;
39032;SDS011;24794;51.982;5.878;2022-07-23T03:05:47;2.58;;;1.38;;
39032;SDS011;24794;51.982;5.878;2022-07-23T03:06:48;4.15;;;1.08;;
39032;SDS011;24794;51.982;5.878;2022-07-23T03:07:48;2.28;;;1.10;;
39032;SDS011;24794;51.982;5.878;2022-07-23T03:08:49;1.15;;;0.90;;
39032;SDS011;24794;51.982;5.878;2022-07-23T03:09:50;1.88;;;1.00;;
39032;SDS011;24794;51.982;5.878;2022-07-23T03:10:50;1.50;;;1.23;;
39032;SDS011;24794;51.982;5.878;2022-07-23T03:11:51;2.90;;;1.00;;
39032;SDS011;24794;51.982;5.878;2022-07-23T03:12:52;2.10;;;0.90;;
39032;SDS011;24794;51.982;5.878;2022-07-23T03:13:52;2.40;;;1.15;;
39032;SDS011;24794;51.982;5.878;2022-07-23T03:14:53;2.20;;;1.35;;
39032;SDS011;24794;51.982;5.878;2022-07-23T03:15:54;2.15;;;1.13;;
39032;SDS011;24794;51.982;5.878;2022-07-23T03:16:54;2.05;;;0.95;;
39032;SDS011;24794;51.982;5.878;2022-07-23T03:17:55;1.63;;;0.93;;
39032;SDS011;24794;51.982;5.878;2022-07-23T03:18:55;1.33;;;1.00;;
39032;SDS011;24794;51.982;5.878;2022-07-23T03:19:56;1.63;;;1.00;;
39032;SDS011;24794;51.982;5.878;2022-07-23T03:20:57;2.85;;;1.38;;
39032;SDS011;24794;51.982;5.878;2022-07-23T03:21:57;2.88;;;1.02;;
39032;SDS011;24794;51.982;5.878;2022-07-23T03:22:58;2.42;;;0.98;;
39032;SDS011;24794;51.982;5.878;2022-07-23T03:23:58;2.53;;;0.90;;
39032;SDS011;24794;51.982;5.878;2022-07-23T03:24:59;2.15;;;1.00;;
39032;SDS011;24794;51.982;5.878;2022-07-23T03:25:59;3.20;;;1.00;;
39032;SDS011;24794;51.982;5.878;2022-07-23T03:27:00;1.25;;;0.75;;
39032;SDS011;24794;51.982;5.878;2022-07-23T03:28:01;1.10;;;0.93;;
39032;SDS011;24794;51.982;5.878;2022-07-23T03:29:01;2.25;;;0.95;;
39032;SDS011;24794;51.982;5.878;2022-07-23T03:30:03;0.93;;;0.80;;
39032;SDS011;24794;51.982;5.878;2022-07-23T03:31:04;2.60;;;0.80;;
39032;SDS011;24794;51.982;5.878;2022-07-23T03:32:05;2.25;;;1.08;;
39032;SDS011;24794;51.982;5.878;2022-07-23T03:33:06;2.78;;;0.90;;
39032;SDS011;24794;51.982;5.878;2022-07-23T03:34:06;1.60;;;0.75;;
39032;SDS011;24794;51.982;5.878;2022-07-23T03:35:07;1.75;;;0.80;;
39032;SDS011;24794;51.982;5.878;2022-07-23T03:36:08;2.28;;;0.82;;
39032;SDS011;24794;51.982;5.878;2022-07-23T03:37:09;1.92;;;0.90;;
39032;SDS011;24794;51.982;5.878;2022-07-23T03:38:09;1.70;;;0.80;;
39032;SDS011;24794;51.982;5.878;2022-07-23T03:39:10;0.73;;;0.70;;
39032;SDS011;24794;51.982;5.878;2022-07-23T03:40:11;1.38;;;0.70;;
39032;SDS011;24794;51.982;5.878;2022-07-23T03:41:11;1.77;;;1.00;;
39032;SDS011;24794;51.982;5.878;2022-07-23T03:42:12;1.55;;;0.85;;
39032;SDS011;24794;51.982;5.878;2022-07-23T03:43:12;2.28;;;0.80;;
39032;SDS011;24794;51.982;5.878;2022-07-23T03:44:13;1.63;;;0.70;;
39032;SDS011;24794;51.982;5.878;2022-07-23T03:45:14;2.65;;;0.85;;
39032;SDS011;24794;51.982;5.878;2022-07-23T03:46:14;1.85;;;0.90;;
39032;SDS011;24794;51.982;5.878;2022-07-23T03:47:15;1.58;;;0.85;;
39032;SDS011;24794;51.982;5.878;2022-07-23T03:48:17;1.55;;;0.80;;
39032;SDS011;24794;51.982;5.878;2022-07-23T03:49:17;3.15;;;0.90;;
39032;SDS011;24794;51.982;5.878;2022-07-23T03:50:18;1.75;;;0.60;;
39032;SDS011;24794;51.982;5.878;2022-07-23T03:51:19;2.30;;;0.98;;
39032;SDS011;24794;51.982;5.878;2022-07-23T03:52:20;1.65;;;0.90;;
39032;SDS011;24794;51.982;5.878;2022-07-23T03:53:20;3.40;;;1.08;;
39032;SDS011;24794;51.982;5.878;2022-07-23T03:54:21;2.08;;;0.80;;
39032;SDS011;24794;51.982;5.878;2022-07-23T03:55:21;2.25;;;0.80;;
39032;SDS011;24794;51.982;5.878;2022-07-23T03:56:22;1.80;;;0.85;;
39032;SDS011;24794;51.982;5.878;2022-07-23T03:57:23;1.23;;;0.60;;
39032;SDS011;24794;51.982;5.878;2022-07-23T03:58:23;1.98;;;0.70;;
39032;SDS011;24794;51.982;5.878;2022-07-23T03:59:24;1.40;;;0.70;;
39032;SDS011;24794;51.982;5.878;2022-07-23T04:00:24;1.25;;;0.70;;
39032;SDS011;24794;51.982;5.878;2022-07-23T04:01:25;1.73;;;0.88;;
39032;SDS011;24794;51.982;5.878;2022-07-23T04:02:25;1.15;;;0.70;;
39032;SDS011;24794;51.982;5.878;2022-07-23T04:03:26;2.65;;;1.00;;
39032;SDS011;24794;51.982;5.878;2022-07-23T04:04:27;2.78;;;0.82;;
39032;SDS011;24794;51.982;5.878;2022-07-23T04:05:28;1.35;;;0.90;;
39032;SDS011;24794;51.982;5.878;2022-07-23T04:06:29;2.40;;;0.75;;
39032;SDS011;24794;51.982;5.878;2022-07-23T04:07:30;2.35;;;0.90;;
39032;SDS011;24794;51.982;5.878;2022-07-23T04:08:30;1.83;;;0.90;;
39032;SDS011;24794;51.982;5.878;2022-07-23T04:09:31;1.98;;;0.80;;
39032;SDS011;24794;51.982;5.878;2022-07-23T04:10:32;2.25;;;0.90;;
39032;SDS011;24794;51.982;5.878;2022-07-23T04:11:32;1.75;;;0.90;;
39032;SDS011;24794;51.982;5.878;2022-07-23T04:12:33;2.15;;;0.90;;
39032;SDS011;24794;51.982;5.878;2022-07-23T04:13:33;1.35;;;0.70;;
39032;SDS011;24794;51.982;5.878;2022-07-23T04:14:34;2.72;;;0.90;;
39032;SDS011;24794;51.982;5.878;2022-07-23T04:15:35;2.42;;;0.80;;
39032;SDS011;24794;51.982;5.878;2022-07-23T04:16:35;3.63;;;0.73;;
39032;SDS011;24794;51.982;5.878;2022-07-23T04:17:36;1.73;;;0.80;;
39032;SDS011;24794;51.982;5.878;2022-07-23T04:18:36;3.17;;;0.85;;
39032;SDS011;24794;51.982;5.878;2022-07-23T04:19:37;1.73;;;0.75;;
39032;SDS011;24794;51.982;5.878;2022-07-23T04:20:41;1.08;;;0.85;;
39032;SDS011;24794;51.982;5.878;2022-07-23T04:21:41;1.30;;;0.93;;
39032;SDS011;24794;51.982;5.878;2022-07-23T04:22:42;2.22;;;0.90;;
39032;SDS011;24794;51.982;5.878;2022-07-23T04:23:42;1.52;;;0.88;;
39032;SDS011;24794;51.982;5.878;2022-07-23T04:24:43;4.13;;;0.90;;
39032;SDS011;24794;51.982;5.878;2022-07-23T04:25:44;2.60;;;0.85;;
39032;SDS011;24794;51.982;5.878;2022-07-23T04:26:45;2.55;;;1.00;;
39032;SDS011;24794;51.982;5.878;2022-07-23T04:27:45;5.38;;;0.90;;
39032;SDS011;24794;51.982;5.878;2022-07-23T04:28:46;1.02;;;0.80;;
39032;SDS011;24794;51.982;5.878;2022-07-23T04:29:46;2.20;;;0.90;;
39032;SDS011;24794;51.982;5.878;2022-07-23T04:30:47;2.72;;;0.80;;
39032;SDS011;24794;51.982;5.878;2022-07-23T04:31:48;1.88;;;0.80;;
39032;SDS011;24794;51.982;5.878;2022-07-23T04:32:48;1.88;;;0.80;;
39032;SDS011;24794;51.982;5.878;2022-07-23T04:33:49;2.38;;;0.80;;
39032;SDS011;24794;51.982;5.878;2022-07-23T04:34:49;1.27;;;0.80;;
39032;SDS011;24794;51.982;5.878;2022-07-23T04:35:50;2.20;;;1.08;;
39032;SDS011;24794;51.982;5.878;2022-07-23T04:36:50;2.78;;;1.00;;
39032;SDS011;24794;51.982;5.878;2022-07-23T04:37:51;1.35;;;0.75;;
39032;SDS011;24794;51.982;5.878;2022-07-23T04:38:51;2.55;;;0.90;;
39032;SDS011;24794;51.982;5.878;2022-07-23T04:39:52;1.95;;;0.80;;
39032;SDS011;24794;51.982;5.878;2022-07-23T04:40:53;1.42;;;0.70;;
39032;SDS011;24794;51.982;5.878;2022-07-23T04:41:53;1.38;;;0.77;;
39032;SDS011;24794;51.982;5.878;2022-07-23T04:42:54;1.52;;;0.68;;
39032;SDS011;24794;51.982;5.878;2022-07-23T04:43:55;1.70;;;0.70;;
39032;SDS011;24794;51.982;5.878;2022-07-23T04:44:55;1.73;;;0.93;;
39032;SDS011;24794;51.982;5.878;2022-07-23T04:45:56;2.00;;;0.70;;
39032;SDS011;24794;51.982;5.878;2022-07-23T04:46:57;2.55;;;0.73;;
39032;SDS011;24794;51.982;5.878;2022-07-23T04:47:58;2.30;;;0.90;;
39032;SDS011;24794;51.982;5.878;2022-07-23T04:48:58;0.98;;;0.60;;
39032;SDS011;24794;51.982;5.878;2022-07-23T04:49:59;1.73;;;0.60;;
39032;SDS011;24794;51.982;5.878;2022-07-23T04:51:00;1.98;;;0.70;;
39032;SDS011;24794;51.982;5.878;2022-07-23T04:52:01;1.75;;;0.80;;
39032;SDS011;24794;51.982;5.878;2022-07-23T04:53:02;1.13;;;0.73;;
39032;SDS011;24794;51.982;5.878;2022-07-23T04:54:03;1.83;;;0.80;;
39032;SDS011;24794;51.982;5.878;2022-07-23T04:55:03;1.63;;;0.82;;
39032;SDS011;24794;51.982;5.878;2022-07-23T04:56:05;1.40;;;0.70;;
39032;SDS011;24794;51.982;5.878;2022-07-23T04:57:06;1.92;;;0.88;;
39032;SDS011;24794;51.982;5.878;2022-07-23T04:58:06;2.25;;;0.85;;
39032;SDS011;24794;51.982;5.878;2022-07-23T04:59:07;1.45;;;0.75;;
39032;SDS011;24794;51.982;5.878;2022-07-23T05:00:07;2.10;;;0.90;;
39032;SDS011;24794;51.982;5.878;2022-07-23T05:01:09;2.70;;;0.60;;
39032;SDS011;24794;51.982;5.878;2022-07-23T05:02:09;1.55;;;0.52;;
39032;SDS011;24794;51.982;5.878;2022-07-23T05:03:10;1.05;;;0.65;;
39032;SDS011;24794;51.982;5.878;2022-07-23T05:04:11;1.80;;;0.80;;
39032;SDS011;24794;51.982;5.878;2022-07-23T05:05:11;1.00;;;0.80;;
39032;SDS011;24794;51.982;5.878;2022-07-23T05:06:12;2.10;;;0.80;;
39032;SDS011;24794;51.982;5.878;2022-07-23T05:07:12;2.42;;;0.65;;
39032;SDS011;24794;51.982;5.878;2022-07-23T05:08:13;4.38;;;0.90;;
39032;SDS011;24794;51.982;5.878;2022-07-23T05:09:13;2.45;;;0.90;;
39032;SDS011;24794;51.982;5.878;2022-07-23T05:10:14;3.03;;;0.80;;
39032;SDS011;24794;51.982;5.878;2022-07-23T05:11:14;3.35;;;0.85;;
39032;SDS011;24794;51.982;5.878;2022-07-23T05:12:15;4.40;;;0.80;;
39032;SDS011;24794;51.982;5.878;2022-07-23T05:13:16;2.08;;;0.77;;
39032;SDS011;24794;51.982;5.878;2022-07-23T05:14:17;2.55;;;0.80;;
39032;SDS011;24794;51.982;5.878;2022-07-23T05:15:18;1.83;;;0.80;;
39032;SDS011;24794;51.982;5.878;2022-07-23T05:16:18;0.98;;;0.75;;
39032;SDS011;24794;51.982;5.878;2022-07-23T05:17:19;3.20;;;0.90;;
39032;SDS011;24794;51.982;5.878;2022-07-23T05:18:19;1.10;;;0.70;;
39032;SDS011;24794;51.982;5.878;2022-07-23T05:19:20;1.02;;;0.70;;
39032;SDS011;24794;51.982;5.878;2022-07-23T05:20:21;4.55;;;0.90;;
39032;SDS011;24794;51.982;5.878;2022-07-23T05:21:21;3.00;;;0.68;;
39032;SDS011;24794;51.982;5.878;2022-07-23T05:22:22;1.63;;;0.63;;
39032;SDS011;24794;51.982;5.878;2022-07-23T05:23:22;1.58;;;0.73;;
39032;SDS011;24794;51.982;5.878;2022-07-23T05:24:23;2.67;;;0.60;;
39032;SDS011;24794;51.982;5.878;2022-07-23T05:25:24;3.38;;;0.73;;
39032;SDS011;24794;51.982;5.878;2022-07-23T05:26:25;1.77;;;0.70;;
39032;SDS011;24794;51.982;5.878;2022-07-23T05:27:25;1.63;;;0.52;;
39032;SDS011;24794;51.982;5.878;2022-07-23T05:28:26;2.58;;;0.60;;
39032;SDS011;24794;51.982;5.878;2022-07-23T05:29:26;1.20;;;0.70;;
39032;SDS011;24794;51.982;5.878;2022-07-23T05:30:27;1.40;;;0.70;;
39032;SDS011;24794;51.982;5.878;2022-07-23T05:31:28;3.60;;;0.60;;
39032;SDS011;24794;51.982;5.878;2022-07-23T05:32:30;1.10;;;0.60;;
39032;SDS011;24794;51.982;5.878;2022-07-23T05:33:31;2.35;;;0.60;;
39032;SDS011;24794;51.982;5.878;2022-07-23T05:34:32;1.00;;;0.47;;
39032;SDS011;24794;51.982;5.878;2022-07-23T05:35:33;0.85;;;0.40;;
39032;SDS011;24794;51.982;5.878;2022-07-23T05:36:33;1.30;;;0.60;;
39032;SDS011;24794;51.982;5.878;2022-07-23T05:37:34;1.52;;;0.60;;
39032;SDS011;24794;51.982;5.878;2022-07-23T05:38:34;3.50;;;0.75;;
39032;SDS011;24794;51.982;5.878;2022-07-23T05:39:35;3.78;;;0.63;;
39032;SDS011;24794;51.982;5.878;2022-07-23T05:40:36;0.90;;;0.50;;
39032;SDS011;24794;51.982;5.878;2022-07-23T05:41:37;1.27;;;0.70;;
39032;SDS011;24794;51.982;5.878;2022-07-23T05:42:38;1.17;;;0.50;;
39032;SDS011;24794;51.982;5.878;2022-07-23T05:43:39;0.60;;;0.50;;
39032;SDS011;24794;51.982;5.878;2022-07-23T05:44:40;1.15;;;0.50;;
39032;SDS011;24794;51.982;5.878;2022-07-23T05:45:41;2.15;;;0.52;;
39032;SDS011;24794;51.982;5.878;2022-07-23T05:46:41;2.22;;;0.60;;
39032;SDS011;24794;51.982;5.878;2022-07-23T05:47:43;1.48;;;0.60;;
39032;SDS011;24794;51.982;5.878;2022-07-23T05:48:45;2.28;;;0.60;;
39032;SDS011;24794;51.982;5.878;2022-07-23T05:49:49;1.13;;;0.60;;
39032;SDS011;24794;51.982;5.878;2022-07-23T05:50:50;2.00;;;0.50;;
39032;SDS011;24794;51.982;5.878;2022-07-23T05:51:50;1.75;;;0.70;;
39032;SDS011;24794;51.982;5.878;2022-07-23T05:52:51;1.17;;;0.55;;
39032;SDS011;24794;51.982;5.878;2022-07-23T05:53:51;2.20;;;0.65;;
39032;SDS011;24794;51.982;5.878;2022-07-23T05:54:52;0.77;;;0.60;;
39032;SDS011;24794;51.982;5.878;2022-07-23T05:55:53;2.80;;;0.73;;
39032;SDS011;24794;51.982;5.878;2022-07-23T05:56:53;2.47;;;0.50;;
39032;SDS011;24794;51.982;5.878;2022-07-23T05:57:54;1.15;;;0.50;;
39032;SDS011;24794;51.982;5.878;2022-07-23T05:58:56;1.55;;;0.60;;
39032;SDS011;24794;51.982;5.878;2022-07-23T05:59:56;2.33;;;0.60;;
39032;SDS011;24794;51.982;5.878;2022-07-23T06:00:57;2.67;;;0.60;;
39032;SDS011;24794;51.982;5.878;2022-07-23T06:01:57;4.70;;;0.70;;
39032;SDS011;24794;51.982;5.878;2022-07-23T06:02:58;1.52;;;0.70;;
39032;SDS011;24794;51.982;5.878;2022-07-23T06:03:59;1.30;;;0.60;;
39032;SDS011;24794;51.982;5.878;2022-07-23T06:04:59;1.45;;;0.50;;
39032;SDS011;24794;51.982;5.878;2022-07-23T06:06:00;1.05;;;0.60;;
39032;SDS011;24794;51.982;5.878;2022-07-23T06:07:01;1.60;;;0.50;;
39032;SDS011;24794;51.982;5.878;2022-07-23T06:08:02;2.05;;;0.60;;